sensor_id;sensor_type;location;lat;lon;timestamp;P1;durP1;ratioP1;P2;durP2;ratioP2
52434;SDS011;38354;52.892;6.148;2023-12-29T04:00:39;24.75;;;3.85;;
52434;SDS011;38354;52.892;6.148;2023-12-29T04:03:06;25.83;;;3.00;;
52434;SDS011;38354;52.892;6.148;2023-12-29T04:05:32;26.65;;;5.32;;
52434;SDS011;38354;52.892;6.148;2023-12-29T04:07:58;25.58;;;2.92;;
52434;SDS011;38354;52.892;6.148;2023-12-29T04:10:23;22.23;;;3.90;;
52434;SDS011;38354;52.892;6.148;2023-12-29T04:12:49;16.55;;;3.00;;
52434;SDS011;38354;52.892;6.148;2023-12-29T04:15:14;26.65;;;3.65;;
52434;SDS011;38354;52.892;6.148;2023-12-29T04:17:40;28.02;;;4.20;;
52434;SDS011;38354;52.892;6.148;2023-12-29T04:20:06;30.25;;;4.10;;
52434;SDS011;38354;52.892;6.148;2023-12-29T04:22:32;28.42;;;4.75;;
52434;SDS011;38354;52.892;6.148;2023-12-29T04:24:58;33.78;;;4.43;;
52434;SDS011;38354;52.892;6.148;2023-12-29T04:27:24;24.52;;;3.35;;
52434;SDS011;38354;52.892;6.148;2023-12-29T04:29:50;21.42;;;3.42;;
52434;SDS011;38354;52.892;6.148;2023-12-29T04:32:15;30.02;;;3.72;;
52434;SDS011;38354;52.892;6.148;2023-12-29T04:34:41;29.23;;;4.75;;
52434;SDS011;38354;52.892;6.148;2023-12-29T04:37:07;29.30;;;3.92;;
52434;SDS011;38354;52.892;6.148;2023-12-29T04:39:32;29.13;;;5.07;;
52434;SDS011;38354;52.892;6.148;2023-12-29T04:41:58;18.63;;;3.33;;
52434;SDS011;38354;52.892;6.148;2023-12-29T04:44:24;21.92;;;4.22;;
52434;SDS011;38354;52.892;6.148;2023-12-29T04:46:50;29.20;;;4.18;;
52434;SDS011;38354;52.892;6.148;2023-12-29T04:49:16;22.48;;;4.22;;
52434;SDS011;38354;52.892;6.148;2023-12-29T04:51:41;27.48;;;4.15;;
52434;SDS011;38354;52.892;6.148;2023-12-29T04:54:07;22.80;;;3.13;;
52434;SDS011;38354;52.892;6.148;2023-12-29T04:56:32;25.52;;;3.15;;
52434;SDS011;38354;52.892;6.148;2023-12-29T04:58:58;18.77;;;3.28;;
52434;SDS011;38354;52.892;6.148;2023-12-29T05:01:25;19.83;;;2.90;;
52434;SDS011;38354;52.892;6.148;2023-12-29T05:03:51;25.13;;;3.30;;
52434;SDS011;38354;52.892;6.148;2023-12-29T05:06:16;14.30;;;3.25;;
52434;SDS011;38354;52.892;6.148;2023-12-29T05:08:42;18.27;;;3.80;;
52434;SDS011;38354;52.892;6.148;2023-12-29T05:11:07;16.55;;;3.22;;
52434;SDS011;38354;52.892;6.148;2023-12-29T05:13:33;18.33;;;3.00;;
52434;SDS011;38354;52.892;6.148;2023-12-29T05:15:59;21.15;;;4.63;;
52434;SDS011;38354;52.892;6.148;2023-12-29T05:18:24;14.50;;;2.53;;
52434;SDS011;38354;52.892;6.148;2023-12-29T05:20:52;22.00;;;3.20;;
52434;SDS011;38354;52.892;6.148;2023-12-29T05:23:18;22.65;;;5.22;;
52434;SDS011;38354;52.892;6.148;2023-12-29T05:25:44;20.17;;;3.30;;
52434;SDS011;38354;52.892;6.148;2023-12-29T05:28:09;22.58;;;3.35;;
52434;SDS011;38354;52.892;6.148;2023-12-29T05:30:35;18.92;;;2.90;;
52434;SDS011;38354;52.892;6.148;2023-12-29T05:33:00;23.33;;;3.15;;
52434;SDS011;38354;52.892;6.148;2023-12-29T05:35:26;28.33;;;4.10;;
52434;SDS011;38354;52.892;6.148;2023-12-29T05:37:52;19.80;;;2.53;;
52434;SDS011;38354;52.892;6.148;2023-12-29T05:40:17;25.92;;;4.05;;
52434;SDS011;38354;52.892;6.148;2023-12-29T05:42:43;27.02;;;4.20;;
52434;SDS011;38354;52.892;6.148;2023-12-29T05:45:09;21.67;;;4.13;;
52434;SDS011;38354;52.892;6.148;2023-12-29T05:47:34;22.83;;;3.38;;
52434;SDS011;38354;52.892;6.148;2023-12-29T05:50:00;20.25;;;2.90;;
52434;SDS011;38354;52.892;6.148;2023-12-29T05:52:25;11.00;;;2.20;;
52434;SDS011;38354;52.892;6.148;2023-12-29T05:54:51;22.27;;;3.67;;
52434;SDS011;38354;52.892;6.148;2023-12-29T05:57:17;14.95;;;3.25;;
52434;SDS011;38354;52.892;6.148;2023-12-29T05:59:42;18.00;;;2.45;;
52434;SDS011;38354;52.892;6.148;2023-12-29T06:02:08;16.58;;;2.63;;
52434;SDS011;38354;52.892;6.148;2023-12-29T06:04:33;16.23;;;3.28;;
52434;SDS011;38354;52.892;6.148;2023-12-29T06:06:59;23.33;;;2.72;;
52434;SDS011;38354;52.892;6.148;2023-12-29T06:09:26;13.07;;;2.50;;
52434;SDS011;38354;52.892;6.148;2023-12-29T06:11:52;27.13;;;4.15;;
52434;SDS011;38354;52.892;6.148;2023-12-29T06:14:17;19.10;;;3.53;;
52434;SDS011;38354;52.892;6.148;2023-12-29T06:16:43;22.15;;;3.72;;
52434;SDS011;38354;52.892;6.148;2023-12-29T06:19:08;23.63;;;3.38;;
52434;SDS011;38354;52.892;6.148;2023-12-29T06:21:43;22.05;;;4.53;;
52434;SDS011;38354;52.892;6.148;2023-12-29T06:24:09;23.55;;;3.72;;
52434;SDS011;38354;52.892;6.148;2023-12-29T06:26:36;18.00;;;2.78;;
52434;SDS011;38354;52.892;6.148;2023-12-29T06:29:07;22.75;;;3.40;;
52434;SDS011;38354;52.892;6.148;2023-12-29T06:31:33;23.17;;;2.92;;
52434;SDS011;38354;52.892;6.148;2023-12-29T06:33:59;19.00;;;3.35;;
52434;SDS011;38354;52.892;6.148;2023-12-29T06:36:25;25.88;;;3.28;;
52434;SDS011;38354;52.892;6.148;2023-12-29T06:38:51;16.38;;;2.63;;
52434;SDS011;38354;52.892;6.148;2023-12-29T06:41:17;19.42;;;3.83;;
52434;SDS011;38354;52.892;6.148;2023-12-29T06:43:44;17.88;;;3.13;;
52434;SDS011;38354;52.892;6.148;2023-12-29T06:46:10;16.60;;;3.30;;
52434;SDS011;38354;52.892;6.148;2023-12-29T06:48:39;28.23;;;3.30;;
52434;SDS011;38354;52.892;6.148;2023-12-29T06:51:05;19.95;;;3.80;;
52434;SDS011;38354;52.892;6.148;2023-12-29T06:53:31;17.98;;;2.88;;
52434;SDS011;38354;52.892;6.148;2023-12-29T06:55:56;14.07;;;2.75;;
52434;SDS011;38354;52.892;6.148;2023-12-29T06:58:22;25.75;;;3.95;;
52434;SDS011;38354;52.892;6.148;2023-12-29T07:00:47;21.85;;;3.83;;
52434;SDS011;38354;52.892;6.148;2023-12-29T07:03:13;30.83;;;4.50;;
52434;SDS011;38354;52.892;6.148;2023-12-29T07:05:40;31.23;;;4.45;;
52434;SDS011;38354;52.892;6.148;2023-12-29T07:08:06;27.13;;;3.50;;
52434;SDS011;38354;52.892;6.148;2023-12-29T07:10:31;22.50;;;3.25;;
52434;SDS011;38354;52.892;6.148;2023-12-29T07:12:57;24.02;;;4.13;;
52434;SDS011;38354;52.892;6.148;2023-12-29T07:15:23;20.23;;;3.35;;
52434;SDS011;38354;52.892;6.148;2023-12-29T07:17:48;29.00;;;4.32;;
52434;SDS011;38354;52.892;6.148;2023-12-29T07:20:14;29.65;;;4.85;;
52434;SDS011;38354;52.892;6.148;2023-12-29T07:22:40;27.02;;;4.32;;
52434;SDS011;38354;52.892;6.148;2023-12-29T07:25:05;27.25;;;3.78;;
52434;SDS011;38354;52.892;6.148;2023-12-29T07:27:31;29.33;;;4.22;;
52434;SDS011;38354;52.892;6.148;2023-12-29T07:29:57;21.85;;;3.17;;
52434;SDS011;38354;52.892;6.148;2023-12-29T07:32:23;29.00;;;4.30;;
52434;SDS011;38354;52.892;6.148;2023-12-29T07:34:48;27.45;;;4.15;;
52434;SDS011;38354;52.892;6.148;2023-12-29T07:37:14;25.13;;;3.78;;
52434;SDS011;38354;52.892;6.148;2023-12-29T07:39:40;25.50;;;3.25;;
52434;SDS011;38354;52.892;6.148;2023-12-29T07:42:05;26.77;;;3.67;;
52434;SDS011;38354;52.892;6.148;2023-12-29T07:44:31;20.95;;;3.50;;
52434;SDS011;38354;52.892;6.148;2023-12-29T07:46:57;25.35;;;4.50;;
52434;SDS011;38354;52.892;6.148;2023-12-29T07:49:22;23.52;;;2.92;;
52434;SDS011;38354;52.892;6.148;2023-12-29T07:51:48;29.70;;;4.80;;
52434;SDS011;38354;52.892;6.148;2023-12-29T07:54:14;21.23;;;3.78;;
52434;SDS011;38354;52.892;6.148;2023-12-29T07:56:39;30.83;;;3.88;;
52434;SDS011;38354;52.892;6.148;2023-12-29T07:59:05;24.70;;;3.45;;
52434;SDS011;38354;52.892;6.148;2023-12-29T08:01:31;22.13;;;4.50;;
52434;SDS011;38354;52.892;6.148;2023-12-29T08:03:57;30.95;;;4.65;;
52434;SDS011;38354;52.892;6.148;2023-12-29T08:06:22;24.42;;;3.92;;
52434;SDS011;38354;52.892;6.148;2023-12-29T08:08:48;26.83;;;3.72;;
52434;SDS011;38354;52.892;6.148;2023-12-29T08:11:14;25.73;;;4.30;;
52434;SDS011;38354;52.892;6.148;2023-12-29T08:13:44;26.45;;;5.75;;
52434;SDS011;38354;52.892;6.148;2023-12-29T08:16:11;31.50;;;4.63;;
52434;SDS011;38354;52.892;6.148;2023-12-29T08:18:36;22.45;;;4.15;;
52434;SDS011;38354;52.892;6.148;2023-12-29T08:21:02;32.58;;;4.85;;
52434;SDS011;38354;52.892;6.148;2023-12-29T08:23:28;30.42;;;4.57;;
52434;SDS011;38354;52.892;6.148;2023-12-29T08:25:53;27.17;;;4.20;;
52434;SDS011;38354;52.892;6.148;2023-12-29T08:28:22;26.85;;;4.55;;
52434;SDS011;38354;52.892;6.148;2023-12-29T08:30:47;25.17;;;3.17;;
52434;SDS011;38354;52.892;6.148;2023-12-29T08:33:13;33.63;;;4.85;;
52434;SDS011;38354;52.892;6.148;2023-12-29T08:35:39;30.45;;;3.33;;
52434;SDS011;38354;52.892;6.148;2023-12-29T08:38:06;23.13;;;4.13;;
52434;SDS011;38354;52.892;6.148;2023-12-29T08:40:31;18.15;;;3.20;;
52434;SDS011;38354;52.892;6.148;2023-12-29T08:42:57;22.13;;;4.13;;
52434;SDS011;38354;52.892;6.148;2023-12-29T08:45:23;26.83;;;3.72;;
52434;SDS011;38354;52.892;6.148;2023-12-29T08:47:49;27.15;;;3.97;;
52434;SDS011;38354;52.892;6.148;2023-12-29T08:50:14;27.48;;;4.18;;
52434;SDS011;38354;52.892;6.148;2023-12-29T08:52:40;26.95;;;3.33;;
52434;SDS011;38354;52.892;6.148;2023-12-29T08:55:06;21.33;;;2.90;;
52434;SDS011;38354;52.892;6.148;2023-12-29T08:57:33;21.80;;;3.65;;
52434;SDS011;38354;52.892;6.148;2023-12-29T08:59:59;28.27;;;3.90;;
52434;SDS011;38354;52.892;6.148;2023-12-29T09:02:25;23.33;;;3.30;;
52434;SDS011;38354;52.892;6.148;2023-12-29T09:04:50;26.05;;;3.65;;
52434;SDS011;38354;52.892;6.148;2023-12-29T09:07:16;26.48;;;3.97;;
52434;SDS011;38354;52.892;6.148;2023-12-29T09:09:42;22.17;;;4.00;;
52434;SDS011;38354;52.892;6.148;2023-12-29T09:12:07;22.67;;;4.13;;
52434;SDS011;38354;52.892;6.148;2023-12-29T09:14:33;26.92;;;3.75;;
52434;SDS011;38354;52.892;6.148;2023-12-29T09:16:59;26.05;;;3.55;;
52434;SDS011;38354;52.892;6.148;2023-12-29T09:19:25;28.05;;;3.75;;
52434;SDS011;38354;52.892;6.148;2023-12-29T09:21:51;22.70;;;3.20;;
52434;SDS011;38354;52.892;6.148;2023-12-29T09:24:17;24.77;;;3.30;;
52434;SDS011;38354;52.892;6.148;2023-12-29T09:26:42;30.75;;;3.67;;
52434;SDS011;38354;52.892;6.148;2023-12-29T09:29:08;27.48;;;3.88;;
52434;SDS011;38354;52.892;6.148;2023-12-29T09:31:34;33.50;;;4.88;;
52434;SDS011;38354;52.892;6.148;2023-12-29T09:34:01;23.52;;;4.28;;
52434;SDS011;38354;52.892;6.148;2023-12-29T09:36:27;17.20;;;3.13;;
52434;SDS011;38354;52.892;6.148;2023-12-29T09:38:52;21.33;;;2.80;;
52434;SDS011;38354;52.892;6.148;2023-12-29T09:41:18;13.35;;;2.92;;
52434;SDS011;38354;52.892;6.148;2023-12-29T09:43:46;23.67;;;4.47;;
52434;SDS011;38354;52.892;6.148;2023-12-29T09:46:15;25.80;;;3.97;;
52434;SDS011;38354;52.892;6.148;2023-12-29T09:48:45;33.42;;;4.95;;
52434;SDS011;38354;52.892;6.148;2023-12-29T09:51:14;31.17;;;4.38;;
52434;SDS011;38354;52.892;6.148;2023-12-29T09:53:41;21.33;;;3.45;;
52434;SDS011;38354;52.892;6.148;2023-12-29T09:56:10;24.55;;;4.03;;
52434;SDS011;38354;52.892;6.148;2023-12-29T09:58:39;27.05;;;3.83;;
52434;SDS011;38354;52.892;6.148;2023-12-29T10:01:06;33.70;;;3.72;;
52434;SDS011;38354;52.892;6.148;2023-12-29T10:03:32;34.03;;;4.28;;
52434;SDS011;38354;52.892;6.148;2023-12-29T10:05:59;25.80;;;3.33;;
52434;SDS011;38354;52.892;6.148;2023-12-29T10:08:28;16.70;;;2.78;;
52434;SDS011;38354;52.892;6.148;2023-12-29T10:10:58;29.10;;;3.92;;
52434;SDS011;38354;52.892;6.148;2023-12-29T10:13:27;24.95;;;3.60;;
52434;SDS011;38354;52.892;6.148;2023-12-29T10:16:02;25.40;;;3.95;;
52434;SDS011;38354;52.892;6.148;2023-12-29T10:21:44;25.10;;;3.78;;
52434;SDS011;38354;52.892;6.148;2023-12-29T10:24:21;27.15;;;3.65;;
52434;SDS011;38354;52.892;6.148;2023-12-29T10:27:08;25.58;;;4.50;;
52434;SDS011;38354;52.892;6.148;2023-12-29T10:29:39;25.48;;;3.67;;
52434;SDS011;38354;52.892;6.148;2023-12-29T10:32:05;23.33;;;2.97;;
52434;SDS011;38354;52.892;6.148;2023-12-29T10:34:31;29.10;;;3.85;;
52434;SDS011;38354;52.892;6.148;2023-12-29T10:37:00;24.25;;;4.05;;
52434;SDS011;38354;52.892;6.148;2023-12-29T10:39:28;18.90;;;3.65;;
52434;SDS011;38354;52.892;6.148;2023-12-29T10:42:02;17.70;;;3.20;;
52434;SDS011;38354;52.892;6.148;2023-12-29T10:44:29;24.70;;;4.05;;
52434;SDS011;38354;52.892;6.148;2023-12-29T10:46:55;20.58;;;3.83;;
52434;SDS011;38354;52.892;6.148;2023-12-29T10:49:20;13.20;;;2.60;;
52434;SDS011;38354;52.892;6.148;2023-12-29T10:51:46;18.67;;;2.65;;
52434;SDS011;38354;52.892;6.148;2023-12-29T10:54:19;18.60;;;2.80;;
52434;SDS011;38354;52.892;6.148;2023-12-29T10:57:01;9.90;;;1.55;;
52434;SDS011;38354;52.892;6.148;2023-12-29T10:59:28;17.10;;;2.95;;
52434;SDS011;38354;52.892;6.148;2023-12-29T11:01:53;17.33;;;2.63;;
52434;SDS011;38354;52.892;6.148;2023-12-29T11:04:21;15.60;;;2.20;;
52434;SDS011;38354;52.892;6.148;2023-12-29T11:06:48;15.35;;;2.05;;
52434;SDS011;38354;52.892;6.148;2023-12-29T11:09:28;17.67;;;2.95;;
52434;SDS011;38354;52.892;6.148;2023-12-29T11:12:02;17.95;;;2.30;;
52434;SDS011;38354;52.892;6.148;2023-12-29T11:14:29;12.63;;;2.13;;
52434;SDS011;38354;52.892;6.148;2023-12-29T11:16:55;12.50;;;2.13;;
52434;SDS011;38354;52.892;6.148;2023-12-29T11:19:22;16.42;;;2.70;;
52434;SDS011;38354;52.892;6.148;2023-12-29T11:21:51;17.00;;;2.15;;
52434;SDS011;38354;52.892;6.148;2023-12-29T11:24:19;16.80;;;3.10;;
52434;SDS011;38354;52.892;6.148;2023-12-29T11:26:45;16.40;;;2.60;;
52434;SDS011;38354;52.892;6.148;2023-12-29T11:29:11;17.75;;;3.38;;
52434;SDS011;38354;52.892;6.148;2023-12-29T11:31:37;17.83;;;2.70;;
52434;SDS011;38354;52.892;6.148;2023-12-29T11:34:10;21.98;;;3.25;;
52434;SDS011;38354;52.892;6.148;2023-12-29T11:36:43;13.25;;;2.00;;
52434;SDS011;38354;52.892;6.148;2023-12-29T11:41:55;15.63;;;2.17;;
52434;SDS011;38354;52.892;6.148;2023-12-29T11:44:26;18.13;;;2.97;;
52434;SDS011;38354;52.892;6.148;2023-12-29T11:46:53;11.05;;;1.83;;
52434;SDS011;38354;52.892;6.148;2023-12-29T11:49:19;14.43;;;2.42;;
52434;SDS011;38354;52.892;6.148;2023-12-29T11:51:48;12.48;;;2.30;;
52434;SDS011;38354;52.892;6.148;2023-12-29T11:54:21;15.57;;;2.42;;
52434;SDS011;38354;52.892;6.148;2023-12-29T11:56:52;8.93;;;1.92;;
52434;SDS011;38354;52.892;6.148;2023-12-29T12:10:38;13.45;;;2.20;;
52434;SDS011;38354;52.892;6.148;2023-12-29T12:12:44;11.57;;;2.28;;
52434;SDS011;38354;52.892;6.148;2023-12-29T12:18:03;13.07;;;1.90;;
52434;SDS011;38354;52.892;6.148;2023-12-29T12:20:32;14.75;;;2.70;;
52434;SDS011;38354;52.892;6.148;2023-12-29T12:23:04;12.88;;;2.45;;
52434;SDS011;38354;52.892;6.148;2023-12-29T12:25:33;15.55;;;3.15;;
52434;SDS011;38354;52.892;6.148;2023-12-29T12:28:01;17.40;;;2.33;;
52434;SDS011;38354;52.892;6.148;2023-12-29T12:30:30;20.13;;;2.95;;
52434;SDS011;38354;52.892;6.148;2023-12-29T12:32:59;13.82;;;2.92;;
52434;SDS011;38354;52.892;6.148;2023-12-29T12:35:26;16.65;;;2.05;;
52434;SDS011;38354;52.892;6.148;2023-12-29T12:40:36;10.90;;;3.27;;
52434;SDS011;38354;52.892;6.148;2023-12-29T12:43:03;11.57;;;2.17;;
52434;SDS011;38354;52.892;6.148;2023-12-29T12:45:29;15.68;;;1.88;;
52434;SDS011;38354;52.892;6.148;2023-12-29T12:48:03;17.35;;;2.00;;
52434;SDS011;38354;52.892;6.148;2023-12-29T12:50:58;18.63;;;2.30;;
52434;SDS011;38354;52.892;6.148;2023-12-29T12:53:25;18.05;;;3.17;;
52434;SDS011;38354;52.892;6.148;2023-12-29T12:55:51;10.38;;;1.80;;
52434;SDS011;38354;52.892;6.148;2023-12-29T12:58:18;18.77;;;2.63;;
52434;SDS011;38354;52.892;6.148;2023-12-29T13:00:45;11.68;;;2.40;;
52434;SDS011;38354;52.892;6.148;2023-12-29T13:03:11;16.83;;;2.50;;
52434;SDS011;38354;52.892;6.148;2023-12-29T13:05:38;22.20;;;3.20;;
52434;SDS011;38354;52.892;6.148;2023-12-29T13:08:04;15.40;;;2.80;;
52434;SDS011;38354;52.892;6.148;2023-12-29T13:10:31;11.40;;;2.13;;
52434;SDS011;38354;52.892;6.148;2023-12-29T13:12:56;12.00;;;1.50;;
52434;SDS011;38354;52.892;6.148;2023-12-29T13:15:22;14.80;;;1.92;;
52434;SDS011;38354;52.892;6.148;2023-12-29T13:17:52;19.20;;;2.53;;
52434;SDS011;38354;52.892;6.148;2023-12-29T13:20:18;15.75;;;2.13;;
52434;SDS011;38354;52.892;6.148;2023-12-29T13:22:46;15.60;;;3.28;;
52434;SDS011;38354;52.892;6.148;2023-12-29T13:25:15;11.02;;;1.83;;
52434;SDS011;38354;52.892;6.148;2023-12-29T13:27:45;14.25;;;2.30;;
52434;SDS011;38354;52.892;6.148;2023-12-29T13:30:15;8.50;;;1.90;;
52434;SDS011;38354;52.892;6.148;2023-12-29T13:32:42;16.05;;;2.67;;
52434;SDS011;38354;52.892;6.148;2023-12-29T13:35:26;16.60;;;2.47;;
52434;SDS011;38354;52.892;6.148;2023-12-29T13:38:03;12.57;;;2.47;;
52434;SDS011;38354;52.892;6.148;2023-12-29T13:40:40;20.92;;;3.65;;
52434;SDS011;38354;52.892;6.148;2023-12-29T13:43:29;15.25;;;2.72;;
52434;SDS011;38354;52.892;6.148;2023-12-29T13:45:57;15.38;;;1.80;;
52434;SDS011;38354;52.892;6.148;2023-12-29T13:48:24;21.90;;;2.75;;
52434;SDS011;38354;52.892;6.148;2023-12-29T13:50:50;9.95;;;1.63;;
52434;SDS011;38354;52.892;6.148;2023-12-29T13:53:20;14.70;;;2.67;;
52434;SDS011;38354;52.892;6.148;2023-12-29T13:55:47;13.88;;;2.80;;
52434;SDS011;38354;52.892;6.148;2023-12-29T13:58:13;15.52;;;2.90;;
52434;SDS011;38354;52.892;6.148;2023-12-29T14:00:40;11.15;;;2.15;;
52434;SDS011;38354;52.892;6.148;2023-12-29T14:03:06;13.65;;;2.13;;
52434;SDS011;38354;52.892;6.148;2023-12-29T14:05:39;16.33;;;2.45;;
52434;SDS011;38354;52.892;6.148;2023-12-29T14:08:32;8.52;;;1.77;;
52434;SDS011;38354;52.892;6.148;2023-12-29T14:10:59;15.93;;;2.58;;
52434;SDS011;38354;52.892;6.148;2023-12-29T14:13:25;16.10;;;2.65;;
52434;SDS011;38354;52.892;6.148;2023-12-29T14:15:52;16.17;;;3.45;;
52434;SDS011;38354;52.892;6.148;2023-12-29T14:20:58;14.57;;;1.85;;
52434;SDS011;38354;52.892;6.148;2023-12-29T14:23:24;18.80;;;2.63;;
52434;SDS011;38354;52.892;6.148;2023-12-29T14:25:50;14.95;;;2.05;;
52434;SDS011;38354;52.892;6.148;2023-12-29T14:28:17;12.73;;;1.90;;
52434;SDS011;38354;52.892;6.148;2023-12-29T14:30:44;18.05;;;2.88;;
52434;SDS011;38354;52.892;6.148;2023-12-29T14:33:10;11.77;;;2.95;;
52434;SDS011;38354;52.892;6.148;2023-12-29T14:35:36;21.52;;;4.38;;
52434;SDS011;38354;52.892;6.148;2023-12-29T14:38:02;14.00;;;3.15;;
52434;SDS011;38354;52.892;6.148;2023-12-29T14:40:28;10.18;;;1.85;;
52434;SDS011;38354;52.892;6.148;2023-12-29T14:42:54;17.67;;;2.70;;
52434;SDS011;38354;52.892;6.148;2023-12-29T14:45:20;20.65;;;3.60;;
52434;SDS011;38354;52.892;6.148;2023-12-29T14:47:45;17.73;;;2.50;;
52434;SDS011;38354;52.892;6.148;2023-12-29T14:50:14;11.80;;;2.40;;
52434;SDS011;38354;52.892;6.148;2023-12-29T14:52:39;12.45;;;2.40;;
52434;SDS011;38354;52.892;6.148;2023-12-29T14:55:05;17.85;;;2.92;;
52434;SDS011;38354;52.892;6.148;2023-12-29T14:57:31;16.58;;;2.30;;
52434;SDS011;38354;52.892;6.148;2023-12-29T14:59:56;15.30;;;2.25;;
52434;SDS011;38354;52.892;6.148;2023-12-29T15:02:22;12.32;;;1.90;;
52434;SDS011;38354;52.892;6.148;2023-12-29T15:04:48;17.58;;;3.45;;
52434;SDS011;38354;52.892;6.148;2023-12-29T15:07:15;14.77;;;2.28;;
52434;SDS011;38354;52.892;6.148;2023-12-29T15:09:41;14.27;;;3.70;;
52434;SDS011;38354;52.892;6.148;2023-12-29T15:12:06;17.63;;;2.70;;
52434;SDS011;38354;52.892;6.148;2023-12-29T15:14:32;26.50;;;8.18;;
52434;SDS011;38354;52.892;6.148;2023-12-29T15:16:58;15.57;;;3.08;;
52434;SDS011;38354;52.892;6.148;2023-12-29T15:19:23;20.35;;;2.00;;
52434;SDS011;38354;52.892;6.148;2023-12-29T15:21:49;20.10;;;3.78;;
52434;SDS011;38354;52.892;6.148;2023-12-29T15:24:18;22.20;;;2.63;;
52434;SDS011;38354;52.892;6.148;2023-12-29T15:26:47;11.77;;;2.05;;
52434;SDS011;38354;52.892;6.148;2023-12-29T15:29:13;13.82;;;2.80;;
52434;SDS011;38354;52.892;6.148;2023-12-29T15:31:45;19.60;;;2.92;;
52434;SDS011;38354;52.892;6.148;2023-12-29T15:34:11;12.75;;;1.98;;
52434;SDS011;38354;52.892;6.148;2023-12-29T15:36:37;16.60;;;2.30;;
52434;SDS011;38354;52.892;6.148;2023-12-29T15:39:03;15.50;;;3.33;;
52434;SDS011;38354;52.892;6.148;2023-12-29T15:41:32;13.00;;;1.90;;
52434;SDS011;38354;52.892;6.148;2023-12-29T15:43:58;14.30;;;2.75;;
52434;SDS011;38354;52.892;6.148;2023-12-29T15:46:24;16.35;;;2.20;;
52434;SDS011;38354;52.892;6.148;2023-12-29T15:48:50;11.85;;;2.03;;
52434;SDS011;38354;52.892;6.148;2023-12-29T15:51:16;16.48;;;2.28;;
52434;SDS011;38354;52.892;6.148;2023-12-29T15:53:42;11.73;;;2.67;;
52434;SDS011;38354;52.892;6.148;2023-12-29T15:56:15;14.50;;;2.65;;
52434;SDS011;38354;52.892;6.148;2023-12-29T15:58:42;23.38;;;3.30;;
52434;SDS011;38354;52.892;6.148;2023-12-29T16:01:07;12.27;;;2.10;;
52434;SDS011;38354;52.892;6.148;2023-12-29T16:03:33;17.20;;;2.47;;
52434;SDS011;38354;52.892;6.148;2023-12-29T16:05:58;10.85;;;2.58;;
52434;SDS011;38354;52.892;6.148;2023-12-29T16:08:26;21.08;;;3.40;;
52434;SDS011;38354;52.892;6.148;2023-12-29T16:10:51;18.95;;;2.90;;
52434;SDS011;38354;52.892;6.148;2023-12-29T16:13:18;18.27;;;2.50;;
52434;SDS011;38354;52.892;6.148;2023-12-29T16:15:44;16.15;;;2.47;;
52434;SDS011;38354;52.892;6.148;2023-12-29T16:18:13;12.77;;;2.78;;
52434;SDS011;38354;52.892;6.148;2023-12-29T16:20:38;15.82;;;2.72;;
52434;SDS011;38354;52.892;6.148;2023-12-29T16:23:04;13.27;;;2.50;;
52434;SDS011;38354;52.892;6.148;2023-12-29T16:25:30;12.85;;;3.22;;
52434;SDS011;38354;52.892;6.148;2023-12-29T16:27:55;12.73;;;2.33;;
52434;SDS011;38354;52.892;6.148;2023-12-29T16:30:21;21.88;;;5.55;;
52434;SDS011;38354;52.892;6.148;2023-12-29T16:32:46;16.55;;;3.25;;
52434;SDS011;38354;52.892;6.148;2023-12-29T16:35:12;15.15;;;2.83;;
52434;SDS011;38354;52.892;6.148;2023-12-29T16:37:38;14.95;;;2.13;;
52434;SDS011;38354;52.892;6.148;2023-12-29T16:40:04;21.13;;;7.28;;
52434;SDS011;38354;52.892;6.148;2023-12-29T16:42:31;11.45;;;2.00;;
52434;SDS011;38354;52.892;6.148;2023-12-29T16:44:56;11.15;;;1.73;;
52434;SDS011;38354;52.892;6.148;2023-12-29T16:47:22;8.07;;;1.63;;
52434;SDS011;38354;52.892;6.148;2023-12-29T16:49:48;11.15;;;2.30;;
52434;SDS011;38354;52.892;6.148;2023-12-29T16:52:13;15.13;;;4.78;;
52434;SDS011;38354;52.892;6.148;2023-12-29T16:54:39;12.32;;;2.55;;
52434;SDS011;38354;52.892;6.148;2023-12-29T16:57:05;10.55;;;2.30;;
52434;SDS011;38354;52.892;6.148;2023-12-29T16:59:31;9.68;;;1.88;;
52434;SDS011;38354;52.892;6.148;2023-12-29T17:01:57;8.80;;;1.60;;
52434;SDS011;38354;52.892;6.148;2023-12-29T17:04:23;9.40;;;1.40;;
52434;SDS011;38354;52.892;6.148;2023-12-29T17:06:49;10.00;;;2.22;;
52434;SDS011;38354;52.892;6.148;2023-12-29T17:09:15;7.93;;;1.77;;
52434;SDS011;38354;52.892;6.148;2023-12-29T17:11:41;7.03;;;2.17;;
52434;SDS011;38354;52.892;6.148;2023-12-29T17:14:08;8.10;;;1.60;;
52434;SDS011;38354;52.892;6.148;2023-12-29T17:16:34;8.35;;;1.10;;
52434;SDS011;38354;52.892;6.148;2023-12-29T17:19:00;10.27;;;1.17;;
52434;SDS011;38354;52.892;6.148;2023-12-29T17:21:26;7.97;;;1.35;;
52434;SDS011;38354;52.892;6.148;2023-12-29T17:23:51;6.60;;;1.67;;
52434;SDS011;38354;52.892;6.148;2023-12-29T17:26:17;7.03;;;3.10;;
52434;SDS011;38354;52.892;6.148;2023-12-29T17:28:44;6.53;;;1.80;;
52434;SDS011;38354;52.892;6.148;2023-12-29T17:31:11;5.25;;;1.13;;
52434;SDS011;38354;52.892;6.148;2023-12-29T17:33:36;5.20;;;1.00;;
52434;SDS011;38354;52.892;6.148;2023-12-29T17:36:02;2.95;;;0.50;;
52434;SDS011;38354;52.892;6.148;2023-12-29T17:38:32;3.85;;;0.82;;
52434;SDS011;38354;52.892;6.148;2023-12-29T17:40:57;5.55;;;1.00;;
52434;SDS011;38354;52.892;6.148;2023-12-29T17:43:26;3.90;;;1.17;;
52434;SDS011;38354;52.892;6.148;2023-12-29T17:45:52;4.07;;;1.15;;
52434;SDS011;38354;52.892;6.148;2023-12-29T17:48:17;3.72;;;0.77;;
52434;SDS011;38354;52.892;6.148;2023-12-29T17:50:43;2.97;;;0.77;;
52434;SDS011;38354;52.892;6.148;2023-12-29T17:53:09;6.63;;;1.25;;
52434;SDS011;38354;52.892;6.148;2023-12-29T17:55:36;6.18;;;1.17;;
52434;SDS011;38354;52.892;6.148;2023-12-29T17:58:01;6.60;;;0.95;;
52434;SDS011;38354;52.892;6.148;2023-12-29T18:00:27;6.45;;;1.30;;
52434;SDS011;38354;52.892;6.148;2023-12-29T18:02:53;5.70;;;1.02;;
52434;SDS011;38354;52.892;6.148;2023-12-29T18:05:19;4.63;;;1.00;;
52434;SDS011;38354;52.892;6.148;2023-12-29T18:07:44;5.70;;;0.88;;
52434;SDS011;38354;52.892;6.148;2023-12-29T18:10:10;5.70;;;1.00;;
52434;SDS011;38354;52.892;6.148;2023-12-29T18:12:49;3.53;;;0.82;;
52434;SDS011;38354;52.892;6.148;2023-12-29T18:16:00;5.60;;;1.02;;
52434;SDS011;38354;52.892;6.148;2023-12-29T18:18:26;3.55;;;0.90;;
52434;SDS011;38354;52.892;6.148;2023-12-29T18:20:53;5.20;;;0.93;;
52434;SDS011;38354;52.892;6.148;2023-12-29T18:23:18;11.57;;;0.95;;
52434;SDS011;38354;52.892;6.148;2023-12-29T18:25:45;6.85;;;1.20;;
52434;SDS011;38354;52.892;6.148;2023-12-29T18:28:11;2.90;;;1.00;;
52434;SDS011;38354;52.892;6.148;2023-12-29T18:30:37;6.90;;;1.00;;
52434;SDS011;38354;52.892;6.148;2023-12-29T18:33:02;4.60;;;1.20;;
52434;SDS011;38354;52.892;6.148;2023-12-29T18:35:28;6.40;;;1.10;;
52434;SDS011;38354;52.892;6.148;2023-12-29T18:37:54;6.82;;;1.25;;
52434;SDS011;38354;52.892;6.148;2023-12-29T18:40:19;11.95;;;1.10;;
52434;SDS011;38354;52.892;6.148;2023-12-29T18:42:45;10.93;;;1.45;;
52434;SDS011;38354;52.892;6.148;2023-12-29T18:45:11;9.52;;;1.55;;
52434;SDS011;38354;52.892;6.148;2023-12-29T18:47:37;8.40;;;1.80;;
52434;SDS011;38354;52.892;6.148;2023-12-29T18:50:03;6.13;;;1.15;;
52434;SDS011;38354;52.892;6.148;2023-12-29T18:52:29;6.90;;;1.30;;
52434;SDS011;38354;52.892;6.148;2023-12-29T18:54:55;5.88;;;1.75;;
52434;SDS011;38354;52.892;6.148;2023-12-29T18:57:21;9.30;;;1.88;;
52434;SDS011;38354;52.892;6.148;2023-12-29T18:59:46;9.48;;;1.50;;